createdAt,value
2022-09-23T00:01:09.439Z,5.60
2022-09-23T00:03:38.643Z,5.60
2022-09-23T00:06:08.431Z,5.60
2022-09-23T00:14:19.327Z,5.50
2022-09-23T00:16:46.169Z,5.50
2022-09-23T00:19:13.036Z,5.30
2022-09-23T00:21:39.995Z,5.40
2022-09-23T00:24:08.020Z,5.40
2022-09-23T00:26:34.789Z,5.30
2022-09-23T00:29:01.541Z,5.30
2022-09-23T00:31:28.556Z,5.30
2022-09-23T00:33:57.197Z,5.30
2022-09-23T00:36:24.594Z,5.50
2022-09-23T00:38:51.658Z,5.50
2022-09-23T00:41:18.553Z,5.50
2022-09-23T00:44:27.544Z,5.40
2022-09-23T00:46:54.418Z,5.40
2022-09-23T00:49:28.186Z,5.40
2022-09-23T00:52:02.793Z,5.40
2022-09-23T00:54:30.310Z,5.30
2022-09-23T00:56:59.699Z,5.30
2022-09-23T00:59:28.986Z,5.40
2022-09-23T01:01:58.895Z,5.30
2022-09-23T01:04:28.237Z,5.20
2022-09-23T01:06:55.072Z,5.20
2022-09-23T01:09:23.067Z,5.10
2022-09-23T01:12:17.521Z,5.10
2022-09-23T01:15:15.223Z,5.20
2022-09-23T01:17:59.885Z,5.10
2022-09-23T01:20:35.657Z,5.10
2022-09-23T01:23:26.606Z,5.10
2022-09-23T01:26:25.898Z,5.10
2022-09-23T01:28:55.697Z,5.10
2022-09-23T01:31:47.180Z,5.10
2022-09-23T01:34:24.900Z,5.00
2022-09-23T01:37:00.653Z,5.00
2022-09-23T01:39:42.801Z,5.00
2022-09-23T01:42:33.531Z,5.00
2022-09-23T01:45:20.569Z,4.90
2022-09-23T01:47:56.270Z,4.90
2022-09-23T01:50:47.431Z,4.80
2022-09-23T01:53:53.304Z,4.90
2022-09-23T01:56:27.457Z,4.80
2022-09-23T01:59:33.457Z,4.80
2022-09-23T02:02:04.462Z,4.80
2022-09-23T02:04:40.631Z,4.70
2022-09-23T02:07:16.751Z,4.70
2022-09-23T02:09:49.078Z,4.70
2022-09-23T02:12:18.592Z,4.70
2022-09-23T02:14:59.870Z,4.80
2022-09-23T02:17:36.185Z,4.70
2022-09-23T02:20:07.257Z,4.80
2022-09-23T02:22:42.604Z,4.80
2022-09-23T02:25:12.412Z,4.80
2022-09-23T02:28:01.525Z,4.80
2022-09-23T02:30:31.899Z,4.80
2022-09-23T02:33:04.862Z,4.80
2022-09-23T02:35:48.961Z,4.80
2022-09-23T02:38:40.185Z,4.80
2022-09-23T02:41:18.349Z,4.80
2022-09-23T02:44:12.659Z,4.80
2022-09-23T02:46:39.743Z,4.70
2022-09-23T02:49:12.575Z,4.80
2022-09-23T02:51:40.475Z,4.70
2022-09-23T02:54:12.039Z,4.80
2022-09-23T02:56:39.064Z,4.60
2022-09-23T02:59:06.196Z,4.50
2022-09-23T03:01:52.864Z,4.40
2022-09-23T03:04:47.227Z,4.30
2022-09-23T03:07:26.433Z,4.30
2022-09-23T03:10:05.657Z,4.30
2022-09-23T03:12:48.247Z,4.30
2022-09-23T03:15:21.984Z,4.20
2022-09-23T03:18:09.329Z,4.20
2022-09-23T03:20:51.616Z,4.30
2022-09-23T03:23:25.205Z,4.30
2022-09-23T03:25:55.424Z,4.40
2022-09-23T03:28:25.420Z,4.30
2022-09-23T03:30:54.581Z,4.30
2022-09-23T03:33:28.518Z,4.40
2022-09-23T03:36:21.851Z,4.40
2022-09-23T03:38:52.696Z,4.40
2022-09-23T03:41:30.216Z,4.40
2022-09-23T03:43:59.896Z,4.50
2022-09-23T03:46:30.194Z,4.40
2022-09-23T03:49:06.403Z,4.30
2022-09-23T03:51:33.195Z,4.30
2022-09-23T03:54:00.046Z,4.30
2022-09-23T03:56:26.893Z,4.20
2022-09-23T03:58:53.643Z,4.20
2022-09-23T04:01:20.494Z,4.20
2022-09-23T04:03:47.270Z,4.20
2022-09-23T04:06:14.149Z,4.10
2022-09-23T04:08:40.916Z,4.00
2022-09-23T04:11:08.025Z,4.10
2022-09-23T04:13:34.848Z,4.10
2022-09-23T04:16:01.897Z,4.10
2022-09-23T04:18:28.688Z,4.10
2022-09-23T04:20:59.774Z,4.10
2022-09-23T04:23:27.434Z,4.00
2022-09-23T04:25:54.813Z,4.00
2022-09-23T04:28:22.539Z,4.00
2022-09-23T04:30:49.428Z,4.00
2022-09-23T04:33:17.410Z,4.00
2022-09-23T04:35:44.460Z,3.90
2022-09-23T04:38:12.600Z,3.90
2022-09-23T04:40:40.042Z,4.00
2022-09-23T04:43:10.551Z,4.10
2022-09-23T04:45:39.701Z,4.00
2022-09-23T04:48:06.632Z,3.90
2022-09-23T04:50:34.000Z,3.80
2022-09-23T04:53:01.841Z,3.90
2022-09-23T04:55:29.177Z,3.80
2022-09-23T04:57:56.069Z,3.80
2022-09-23T05:00:28.609Z,3.90
2022-09-23T05:02:55.669Z,3.90
2022-09-23T05:05:23.663Z,4.00
2022-09-23T05:07:51.210Z,4.10
2022-09-23T05:10:18.261Z,4.10
2022-09-23T05:12:45.089Z,4.10
2022-09-23T05:15:13.061Z,4.20
2022-09-23T05:17:39.850Z,4.20
2022-09-23T05:20:07.193Z,4.20
2022-09-23T05:22:33.967Z,4.20
2022-09-23T05:25:01.577Z,4.20
2022-09-23T05:27:28.659Z,4.20
2022-09-23T05:29:55.434Z,4.30
2022-09-23T05:32:22.325Z,4.20
2022-09-23T05:34:49.062Z,4.20
2022-09-23T05:37:15.798Z,4.30
2022-09-23T05:39:42.549Z,4.20
2022-09-23T05:42:09.896Z,4.30
2022-09-23T05:44:36.679Z,4.30
2022-09-23T05:47:03.607Z,4.50
2022-09-23T05:49:55.282Z,4.60
2022-09-23T05:52:17.711Z,4.60
2022-09-23T05:54:44.432Z,4.80
2022-09-23T05:57:11.871Z,4.90
2022-09-23T05:59:39.085Z,5.00
2022-09-23T06:02:06.165Z,5.10
2022-09-23T06:04:33.019Z,5.30
2022-09-23T06:07:03.328Z,5.40
2022-09-23T06:09:35.585Z,5.50
2022-09-23T06:12:03.976Z,5.60
2022-09-23T06:14:30.776Z,5.70
2022-09-23T06:16:57.511Z,5.90
2022-09-23T06:19:24.306Z,6.00
2022-09-23T06:21:51.061Z,6.10
2022-09-23T06:24:21.220Z,6.20
2022-09-23T06:26:49.110Z,6.30
2022-09-23T06:29:16.092Z,6.40
2022-09-23T06:31:43.341Z,6.50
2022-09-23T06:34:14.561Z,6.60
2022-09-23T06:36:46.235Z,6.70
2022-09-23T06:39:17.163Z,6.80
2022-09-23T06:41:46.696Z,7.00
2022-09-23T06:44:14.532Z,7.00
2022-09-23T06:46:41.386Z,7.10
2022-09-23T06:49:08.173Z,7.10
2022-09-23T06:51:34.903Z,7.20
2022-09-23T06:54:01.638Z,7.30
2022-09-23T06:56:28.418Z,7.30
2022-09-23T06:58:55.213Z,7.50
2022-09-23T07:01:23.154Z,7.50
2022-09-23T07:03:49.975Z,7.70
2022-09-23T07:06:17.392Z,7.80
2022-09-23T07:08:46.856Z,7.80
2022-09-23T07:11:14.260Z,7.90
2022-09-23T07:13:42.200Z,8.00
2022-09-23T07:16:10.895Z,8.20
2022-09-23T07:18:38.780Z,8.30
2022-09-23T07:21:15.261Z,8.40
2022-09-23T07:23:47.044Z,8.50
2022-09-23T07:26:15.190Z,8.60
2022-09-23T07:28:42.376Z,8.80
2022-09-23T07:31:12.247Z,8.90
2022-09-23T07:33:44.007Z,9.00
2022-09-23T07:36:17.222Z,9.20
2022-09-23T07:38:45.792Z,9.40
2022-09-23T07:41:16.903Z,9.70
2022-09-23T07:43:44.635Z,10.20
2022-09-23T07:46:17.498Z,10.70
2022-09-23T07:48:45.871Z,10.90
2022-09-23T07:51:22.390Z,11.10
2022-09-23T07:53:51.161Z,11.60
2022-09-23T07:56:19.431Z,12.10
2022-09-23T07:58:59.865Z,11.80
2022-09-23T08:01:29.436Z,11.90
2022-09-23T08:04:01.523Z,12.00
2022-09-23T08:06:28.372Z,12.10
2022-09-23T08:08:58.367Z,12.10
2022-09-23T08:11:26.619Z,12.10
2022-09-23T08:13:53.889Z,12.10
2022-09-23T08:16:21.978Z,12.10
2022-09-23T08:18:48.963Z,12.10
2022-09-23T08:21:22.670Z,12.20
2022-09-23T08:23:50.754Z,12.20
2022-09-23T08:26:21.624Z,12.40
2022-09-23T08:28:48.906Z,12.40
2022-09-23T08:31:15.773Z,12.40
2022-09-23T08:33:43.155Z,12.40
2022-09-23T08:36:10.070Z,12.40
2022-09-23T08:38:36.892Z,12.50
2022-09-23T08:41:08.079Z,12.70
2022-09-23T08:43:36.911Z,13.10
2022-09-23T08:46:08.610Z,13.50
2022-09-23T08:48:42.153Z,13.80
2022-09-23T08:51:14.510Z,13.70
2022-09-23T08:53:42.279Z,14.00
2022-09-23T08:56:16.053Z,14.20
2022-09-23T08:59:07.445Z,13.90
2022-09-23T09:01:40.620Z,13.90
2022-09-23T09:04:18.331Z,14.40
2022-09-23T09:06:55.890Z,14.60
2022-09-23T09:09:31.025Z,14.70
2022-09-23T09:12:26.815Z,14.30
2022-09-23T09:15:12.700Z,14.60
2022-09-23T09:18:04.187Z,15.00
2022-09-23T09:20:57.105Z,15.10
2022-09-23T09:23:46.349Z,14.70
2022-09-23T09:26:22.500Z,14.70
2022-09-23T09:29:02.531Z,15.00
2022-09-23T09:31:48.988Z,15.10
2022-09-23T09:34:23.591Z,15.50
2022-09-23T09:37:11.487Z,15.50
2022-09-23T09:39:38.255Z,15.50
2022-09-23T09:42:06.503Z,15.50
2022-09-23T09:44:50.691Z,16.00
2022-09-23T09:48:03.454Z,15.60
2022-09-23T09:50:43.680Z,15.90
2022-09-23T09:53:35.809Z,16.20
2022-09-23T09:56:08.644Z,16.20
2022-09-23T09:58:50.199Z,16.20
2022-09-23T10:01:19.924Z,16.20
2022-09-23T10:03:47.459Z,16.00
2022-09-23T10:06:17.781Z,16.20
2022-09-23T10:09:11.367Z,16.30
2022-09-23T10:11:39.478Z,16.50
2022-09-23T10:14:06.216Z,17.00
2022-09-23T10:16:34.442Z,17.10
2022-09-23T10:19:04.407Z,16.80
2022-09-23T10:21:37.578Z,16.80
2022-09-23T10:24:07.618Z,16.50
2022-09-23T10:26:42.159Z,16.90
2022-09-23T10:29:32.357Z,17.20
2022-09-23T10:32:20.549Z,17.10
2022-09-23T10:34:57.064Z,17.40
2022-09-23T10:37:37.513Z,17.40
2022-09-23T10:40:36.379Z,17.10
2022-09-23T10:43:50.223Z,17.10
2022-09-23T10:46:41.129Z,16.90
2022-09-23T10:49:45.184Z,17.30
2022-09-23T10:52:47.113Z,16.80
2022-09-23T10:55:33.973Z,17.30
2022-09-23T10:58:48.438Z,17.50
2022-09-23T11:01:39.497Z,17.70
2022-09-23T11:04:27.787Z,17.20
2022-09-23T11:07:38.485Z,17.10
2022-09-23T11:10:29.034Z,17.20
2022-09-23T11:13:09.374Z,17.20
2022-09-23T11:15:53.157Z,17.00
2022-09-23T11:18:42.834Z,17.10
2022-09-23T11:21:27.710Z,17.20
2022-09-23T11:24:01.267Z,17.20
2022-09-23T11:26:48.911Z,16.90
2022-09-23T11:29:29.506Z,16.90
2022-09-23T11:32:08.494Z,16.80
2022-09-23T11:34:44.062Z,16.90
2022-09-23T11:37:18.674Z,16.80
2022-09-23T11:40:23.311Z,16.60
2022-09-23T11:42:56.395Z,16.60
2022-09-23T11:45:52.830Z,16.60
2022-09-23T11:48:32.773Z,16.60
2022-09-23T11:51:04.993Z,16.70
2022-09-23T11:53:54.429Z,16.60
2022-09-23T11:56:46.098Z,16.40
2022-09-23T11:59:40.868Z,16.40
2022-09-23T12:03:00.333Z,16.40
2022-09-23T12:05:36.786Z,16.60
2022-09-23T12:08:28.564Z,16.60
2022-09-23T12:11:03.584Z,16.60
2022-09-23T12:13:43.543Z,16.60
2022-09-23T12:16:28.773Z,16.60
2022-09-23T12:19:22.421Z,16.60
2022-09-23T12:22:05.554Z,16.60
2022-09-23T12:25:10.394Z,16.50
2022-09-23T12:27:45.530Z,16.60
2022-09-23T12:30:23.087Z,16.50
2022-09-23T12:32:50.201Z,16.40
2022-09-23T12:35:33.701Z,16.40
2022-09-23T12:38:01.529Z,16.50
2022-09-23T12:40:44.443Z,16.40
2022-09-23T12:43:20.009Z,16.40
2022-09-23T12:45:48.440Z,16.50
2022-09-23T12:48:18.307Z,16.60
2022-09-23T12:50:53.021Z,16.50
2022-09-23T12:53:34.860Z,16.40
2022-09-23T12:56:20.925Z,16.40
2022-09-23T12:58:48.163Z,16.50
2022-09-23T13:01:15.071Z,16.40
2022-09-23T13:04:04.791Z,16.40
2022-09-23T13:06:58.799Z,16.40
2022-09-23T13:09:31.673Z,16.60
2022-09-23T13:12:01.901Z,16.50
2022-09-23T13:14:30.345Z,16.40
2022-09-23T13:16:58.550Z,16.40
2022-09-23T13:19:28.224Z,16.50
2022-09-23T13:21:59.859Z,16.40
2022-09-23T13:24:29.289Z,16.50
2022-09-23T13:27:05.736Z,16.60
2022-09-23T13:29:46.401Z,16.60
2022-09-23T13:32:17.699Z,16.80
2022-09-23T13:34:52.896Z,17.20
2022-09-23T13:37:28.840Z,17.20
2022-09-23T13:40:15.901Z,17.10
2022-09-23T13:42:47.309Z,17.00
2022-09-23T13:45:18.480Z,16.90
2022-09-23T13:47:48.031Z,16.90
2022-09-23T13:50:20.474Z,16.80
2022-09-23T13:52:59.680Z,16.80
2022-09-23T13:55:37.432Z,16.70
2022-09-23T13:58:22.352Z,16.60
2022-09-23T14:00:50.506Z,16.50
2022-09-23T14:03:18.949Z,16.40
2022-09-23T14:05:46.323Z,16.30
2022-09-23T14:08:13.262Z,16.30
2022-09-23T14:10:44.927Z,16.40
2022-09-23T14:13:32.413Z,16.50
2022-09-23T14:16:01.975Z,16.50
2022-09-23T14:18:33.568Z,16.60
2022-09-23T14:21:00.442Z,16.60
2022-09-23T14:23:27.751Z,16.70
2022-09-23T14:25:55.620Z,16.70
2022-09-23T14:28:26.322Z,16.50
2022-09-23T14:30:57.413Z,16.40
2022-09-23T14:33:42.978Z,16.40
2022-09-23T14:36:34.062Z,16.40
2022-09-23T14:39:10.106Z,16.40
2022-09-23T14:41:39.841Z,16.50
2022-09-23T14:44:07.893Z,16.50
2022-09-23T14:46:37.085Z,16.50
2022-09-23T14:49:16.482Z,16.40
2022-09-23T14:51:54.014Z,16.40
2022-09-23T14:54:40.200Z,16.40
2022-09-23T14:57:25.454Z,16.40
2022-09-23T14:59:54.030Z,16.40
2022-09-23T15:02:31.711Z,16.40
2022-09-23T15:05:09.459Z,16.40
2022-09-23T15:07:39.923Z,16.40
2022-09-23T15:10:09.699Z,16.30
2022-09-23T15:12:37.177Z,16.30
2022-09-23T15:15:11.587Z,16.30
2022-09-23T15:17:38.425Z,16.30
2022-09-23T15:20:20.221Z,16.20
2022-09-23T15:22:49.888Z,16.10
2022-09-23T15:25:22.615Z,16.00
2022-09-23T15:28:12.063Z,16.00
2022-09-23T15:30:39.845Z,15.90
2022-09-23T15:33:07.010Z,16.00
2022-09-23T15:35:34.137Z,15.90
2022-09-23T15:38:02.177Z,15.90
2022-09-23T15:40:36.497Z,15.90
2022-09-23T15:43:21.079Z,15.80
2022-09-23T15:45:57.582Z,15.70
2022-09-23T15:48:39.316Z,15.60
2022-09-23T15:51:09.668Z,15.60
2022-09-23T15:53:38.103Z,15.50
2022-09-23T15:56:06.241Z,15.40
2022-09-23T15:58:33.012Z,15.40
2022-09-23T16:01:00.925Z,15.30
2022-09-23T16:03:30.869Z,15.20
2022-09-23T16:06:01.061Z,15.20
2022-09-23T16:08:29.022Z,15.20
2022-09-23T16:10:56.191Z,15.10
2022-09-23T16:13:23.092Z,15.10
2022-09-23T16:15:50.177Z,15.00
2022-09-23T16:18:17.203Z,15.00
2022-09-23T16:20:45.449Z,15.00
2022-09-23T16:23:37.605Z,14.90
2022-09-23T16:26:06.252Z,14.80
2022-09-23T16:28:33.503Z,14.70
2022-09-23T16:31:00.227Z,14.60
2022-09-23T16:33:27.734Z,14.60
2022-09-23T16:35:54.835Z,14.60
2022-09-23T16:38:21.563Z,14.50
2022-09-23T16:40:48.405Z,14.40
2022-09-23T16:43:15.326Z,14.20
2022-09-23T16:45:42.124Z,14.20
2022-09-23T16:48:11.349Z,14.10
2022-09-23T16:50:38.180Z,14.00
2022-09-23T16:53:04.991Z,13.90
2022-09-23T16:55:31.934Z,13.80
2022-09-23T16:57:58.743Z,13.70
2022-09-23T17:00:44.302Z,13.50
2022-09-23T17:03:31.153Z,13.40
2022-09-23T17:05:58.277Z,13.30
2022-09-23T17:08:25.245Z,13.10
2022-09-23T17:10:58.582Z,13.00
2022-09-23T17:13:27.366Z,12.90
2022-09-23T17:15:54.662Z,12.80
2022-09-23T17:18:21.533Z,12.60
2022-09-23T17:20:59.394Z,12.50
2022-09-23T17:23:26.920Z,12.40
2022-09-23T17:25:53.977Z,12.40
2022-09-23T17:28:21.317Z,12.30
2022-09-23T17:31:00.409Z,12.20
2022-09-23T17:33:29.196Z,12.20
2022-09-23T17:35:56.839Z,12.10
2022-09-23T17:38:28.657Z,12.10
2022-09-23T17:40:59.038Z,12.00
2022-09-23T17:43:26.119Z,11.90
2022-09-23T17:45:54.480Z,11.80
2022-09-23T17:48:25.409Z,11.70
2022-09-23T17:51:06.872Z,11.60
2022-09-23T17:53:38.762Z,11.50
2022-09-23T17:56:08.677Z,11.50
2022-09-23T17:58:37.215Z,11.40
2022-09-23T18:01:08.252Z,11.30
2022-09-23T18:03:35.092Z,11.20
2022-09-23T18:06:16.583Z,11.20
2022-09-23T18:08:47.983Z,11.20
2022-09-23T18:11:23.449Z,11.10
2022-09-23T18:13:56.650Z,11.10
2022-09-23T18:16:26.643Z,11.10
2022-09-23T18:18:55.365Z,11.10
2022-09-23T18:21:24.988Z,11.10
2022-09-23T18:23:51.816Z,11.10
2022-09-23T18:26:23.997Z,11.10
2022-09-23T18:28:53.553Z,11.10
2022-09-23T18:31:20.549Z,11.10
2022-09-23T18:33:51.937Z,11.00
2022-09-23T18:36:20.135Z,11.00
2022-09-23T18:38:48.092Z,11.10
2022-09-23T18:41:15.381Z,11.00
2022-09-23T18:43:47.594Z,11.10
2022-09-23T18:46:18.061Z,11.10
2022-09-23T18:49:03.887Z,11.00
2022-09-23T18:51:32.099Z,11.10
2022-09-23T18:54:00.423Z,11.00
2022-09-23T18:56:39.602Z,11.00
2022-09-23T18:59:08.537Z,10.90
2022-09-23T19:01:35.591Z,10.90
2022-09-23T19:04:03.646Z,10.90
2022-09-23T19:06:33.155Z,10.90
2022-09-23T19:08:59.922Z,10.90
2022-09-23T19:11:27.016Z,10.80
2022-09-23T19:13:55.983Z,10.80
2022-09-23T19:16:23.676Z,10.70
2022-09-23T19:18:51.315Z,10.70
2022-09-23T19:21:20.497Z,10.70
2022-09-23T19:23:53.120Z,10.60
2022-09-23T19:26:23.374Z,10.60
2022-09-23T19:28:55.229Z,10.50
2022-09-23T19:31:29.126Z,10.40
2022-09-23T19:34:05.944Z,10.40
2022-09-23T19:36:34.840Z,10.40
2022-09-23T19:39:14.435Z,10.30
2022-09-23T19:41:41.219Z,10.20
2022-09-23T19:44:08.099Z,10.20
2022-09-23T19:46:37.321Z,10.10
2022-09-23T19:49:05.659Z,10.00
2022-09-23T19:51:36.941Z,10.00
2022-09-23T19:54:05.519Z,10.00
2022-09-23T19:56:33.256Z,9.90
2022-09-23T19:59:00.676Z,9.90
2022-09-23T20:01:29.341Z,9.90
2022-09-23T20:03:56.194Z,9.90
2022-09-23T20:06:23.019Z,9.80
2022-09-23T20:08:50.071Z,9.80
2022-09-23T20:11:19.192Z,9.70
2022-09-23T20:13:47.487Z,9.70
2022-09-23T20:16:19.658Z,9.60
2022-09-23T20:18:51.768Z,9.60
2022-09-23T20:21:18.533Z,9.60
2022-09-23T20:23:45.260Z,9.60
2022-09-23T20:26:30.535Z,9.60
2022-09-23T20:29:01.359Z,9.50
2022-09-23T20:31:28.871Z,9.50
2022-09-23T20:33:58.479Z,9.40
2022-09-23T20:36:29.408Z,9.40
2022-09-23T20:38:59.359Z,9.40
2022-09-23T20:41:27.343Z,9.40
2022-09-23T20:43:55.197Z,9.40
2022-09-23T20:46:23.420Z,9.30
2022-09-23T20:48:50.658Z,9.40
2022-09-23T20:51:17.822Z,9.40
2022-09-23T20:53:45.640Z,9.40
2022-09-23T20:56:13.882Z,9.30
2022-09-23T20:58:40.610Z,9.40
2022-09-23T21:01:12.255Z,9.40
2022-09-23T21:03:41.582Z,9.40
2022-09-23T21:06:09.895Z,9.40
2022-09-23T21:08:37.598Z,9.50
2022-09-23T21:11:06.388Z,9.50
2022-09-23T21:13:33.581Z,9.50
2022-09-23T21:16:09.725Z,9.50
2022-09-23T21:18:37.971Z,9.50
2022-09-23T21:21:06.581Z,9.60
2022-09-23T21:23:35.651Z,9.50
2022-09-23T21:26:07.665Z,9.60
2022-09-23T21:28:37.070Z,9.60
2022-09-23T21:31:06.553Z,9.60
2022-09-23T21:33:36.298Z,9.60
2022-09-23T21:36:06.584Z,9.60
2022-09-23T21:38:37.528Z,9.60
2022-09-23T21:41:07.043Z,9.60
2022-09-23T21:43:37.264Z,9.60
2022-09-23T21:46:06.502Z,9.60
2022-09-23T21:48:35.130Z,9.70
2022-09-23T21:51:08.647Z,9.70
2022-09-23T21:53:39.530Z,9.70
2022-09-23T21:56:07.622Z,9.80
2022-09-23T21:58:35.809Z,9.80
2022-09-23T22:01:10.939Z,9.80
2022-09-23T22:03:37.829Z,9.80
2022-09-23T22:06:21.309Z,9.80
2022-09-23T22:08:54.578Z,9.80
2022-09-23T22:11:42.355Z,9.70
2022-09-23T22:14:11.821Z,9.80
2022-09-23T22:16:39.354Z,9.70
2022-09-23T22:19:07.114Z,9.70
2022-09-23T22:21:36.559Z,9.70
2022-09-23T22:24:05.396Z,9.60
2022-09-23T22:26:40.720Z,9.60
2022-09-23T22:29:27.965Z,9.60
2022-09-23T22:32:13.570Z,9.60
2022-09-23T22:34:50.412Z,9.70
2022-09-23T22:37:21.278Z,9.60
2022-09-23T22:39:48.085Z,9.60
2022-09-23T22:42:15.000Z,9.60
2022-09-23T22:44:42.104Z,9.60
2022-09-23T22:47:09.904Z,9.60
2022-09-23T22:49:37.033Z,9.60
2022-09-23T22:52:09.158Z,9.60
2022-09-23T22:54:36.309Z,9.60
2022-09-23T22:57:07.410Z,9.60
2022-09-23T22:59:34.816Z,9.60
2022-09-23T23:02:02.822Z,9.50
2022-09-23T23:04:30.956Z,9.50
2022-09-23T23:06:58.669Z,9.50
2022-09-23T23:09:25.622Z,9.60
2022-09-23T23:11:52.432Z,9.60
2022-09-23T23:14:19.357Z,9.50
2022-09-23T23:16:46.741Z,9.50
2022-09-23T23:19:17.135Z,9.50
2022-09-23T23:21:45.343Z,9.50
2022-09-23T23:24:21.128Z,9.50
2022-09-23T23:26:48.577Z,9.50
2022-09-23T23:29:17.586Z,9.40
2022-09-23T23:31:45.144Z,9.50
2022-09-23T23:34:14.129Z,9.40
2022-09-23T23:36:41.392Z,9.40
2022-09-23T23:39:08.712Z,9.40
2022-09-23T23:41:36.331Z,9.40
2022-09-23T23:44:03.667Z,9.30
2022-09-23T23:46:31.904Z,9.30
2022-09-23T23:48:59.783Z,9.30
2022-09-23T23:51:27.306Z,9.30
2022-09-23T23:53:54.982Z,9.20
2022-09-23T23:56:24.085Z,9.30
2022-09-23T23:58:55.359Z,9.20
